PHYIS EBOS-EHRD
Flight info
| Callsign | PHYIS |
|---|---|
| Flight time | 0h 31m |
| Altitude | 2000 |
| Route | VIA COASTLINE DCT HOTEL |
| Aircraft | EC35/L-SBFGRZ/LB2 |
Departure
| Time | 2026-04-26 13:27 |
|---|---|
| Airport | Ostend-Bruges International Airport (EBOS) |
Arrival
| Time | 2026-04-26 13:58 |
|---|---|
| Airport | Rotterdam The Hague Airport (EHRD) |
| Time | Latitude | Longitude | Altitude | Speed | Heading |
|---|---|---|---|---|---|
| 2026-04-26 13:18 | 51.20146 | 2.86817 | 10 ft | 0 kts | 166° |
| 2026-04-26 13:25 | 51.20136 | 2.86818 | 25 ft | 4 kts | 260° |
| 2026-04-26 13:26 | 51.20172 | 2.86705 | 101 ft | 31 kts | 303° |
| 2026-04-26 13:26 | 51.20437 | 2.86361 | 223 ft | 67 kts | 333° |
| 2026-04-26 13:26 | 51.21002 | 2.86363 | 231 ft | 123 kts | 39° |
| 2026-04-26 13:26 | 51.21630 | 2.87516 | 394 ft | 151 kts | 49° |
| 2026-04-26 13:27 | 51.22318 | 2.88889 | 578 ft | 161 kts | 51° |
| 2026-04-26 13:27 | 51.22996 | 2.90360 | 735 ft | 167 kts | 52° |
| 2026-04-26 13:27 | 51.23674 | 2.91872 | 684 ft | 168 kts | 52° |
| 2026-04-26 13:27 | 51.24329 | 2.93380 | 828 ft | 167 kts | 54° |
| 2026-04-26 13:28 | 51.24967 | 2.94933 | 1071 ft | 165 kts | 55° |
| 2026-04-26 13:28 | 51.25537 | 2.96423 | 1588 ft | 147 kts | 56° |
| 2026-04-26 13:28 | 51.26030 | 2.97795 | 1462 ft | 161 kts | 57° |
| 2026-04-26 13:28 | 51.26605 | 2.99387 | 888 ft | 168 kts | 57° |
| 2026-04-26 13:29 | 51.27215 | 3.00981 | 854 ft | 168 kts | 55° |
| 2026-04-26 13:29 | 51.27634 | 3.02020 | 888 ft | 168 kts | 54° |
| 2026-04-26 13:29 | 51.28493 | 3.04080 | 889 ft | 168 kts | 53° |
| 2026-04-26 13:29 | 51.29153 | 3.05617 | 774 ft | 168 kts | 53° |
| 2026-04-26 13:30 | 51.29851 | 3.07111 | 733 ft | 168 kts | 49° |
| 2026-04-26 13:30 | 51.30566 | 3.08586 | 623 ft | 167 kts | 51° |
| 2026-04-26 13:30 | 51.31114 | 3.10230 | 749 ft | 167 kts | 61° |
| 2026-04-26 13:30 | 51.31618 | 3.11905 | 838 ft | 168 kts | 62° |
| 2026-04-26 13:31 | 51.32092 | 3.13613 | 880 ft | 168 kts | 63° |
| 2026-04-26 13:31 | 51.32567 | 3.15316 | 911 ft | 168 kts | 64° |
| 2026-04-26 13:31 | 51.33037 | 3.17023 | 828 ft | 168 kts | 64° |
| 2026-04-26 13:31 | 51.33408 | 3.18381 | 749 ft | 167 kts | 64° |
| 2026-04-26 13:32 | 51.33880 | 3.20087 | 753 ft | 168 kts | 64° |
| 2026-04-26 13:32 | 51.34352 | 3.21797 | 765 ft | 168 kts | 64° |
| 2026-04-26 13:32 | 51.34820 | 3.23484 | 775 ft | 168 kts | 64° |
| 2026-04-26 13:32 | 51.35294 | 3.25194 | 790 ft | 168 kts | 64° |
| 2026-04-26 13:33 | 51.35772 | 3.26899 | 806 ft | 168 kts | 64° |
| 2026-04-26 13:33 | 51.36244 | 3.28615 | 816 ft | 168 kts | 64° |
| 2026-04-26 13:33 | 51.36631 | 3.30351 | 809 ft | 168 kts | 71° |
| 2026-04-26 13:33 | 51.36883 | 3.32175 | 799 ft | 168 kts | 77° |
| 2026-04-26 13:34 | 51.37059 | 3.34026 | 813 ft | 168 kts | 79° |
| 2026-04-26 13:34 | 51.37233 | 3.35875 | 828 ft | 168 kts | 79° |
| 2026-04-26 13:34 | 51.37409 | 3.37721 | 842 ft | 168 kts | 79° |
| 2026-04-26 13:34 | 51.37541 | 3.38940 | 855 ft | 168 kts | 77° |
| 2026-04-26 13:35 | 51.37862 | 3.41374 | 875 ft | 167 kts | 74° |
| 2026-04-26 13:35 | 51.38287 | 3.43080 | 989 ft | 166 kts | 50° |
| 2026-04-26 13:35 | 51.39184 | 3.44262 | 931 ft | 168 kts | 35° |
| 2026-04-26 13:35 | 51.40131 | 3.45355 | 1042 ft | 167 kts | 35° |
| 2026-04-26 13:36 | 51.41056 | 3.46410 | 1436 ft | 155 kts | 34° |
| 2026-04-26 13:36 | 51.41863 | 3.47302 | 2193 ft | 124 kts | 34° |
| 2026-04-26 13:36 | 51.42689 | 3.48176 | 1975 ft | 167 kts | 33° |
| 2026-04-26 13:36 | 51.43667 | 3.49148 | 1523 ft | 164 kts | 31° |
| 2026-04-26 13:37 | 51.44617 | 3.50022 | 1586 ft | 159 kts | 29° |
| 2026-04-26 13:37 | 51.45625 | 3.50896 | 1533 ft | 167 kts | 28° |
| 2026-04-26 13:37 | 51.46660 | 3.51750 | 1552 ft | 167 kts | 27° |
| 2026-04-26 13:37 | 51.47672 | 3.52555 | 1744 ft | 154 kts | 26° |
| 2026-04-26 13:38 | 51.48287 | 3.53033 | 1974 ft | 140 kts | 26° |
| 2026-04-26 13:38 | 51.49126 | 3.53673 | 2433 ft | 126 kts | 25° |
| 2026-04-26 13:38 | 51.50085 | 3.54361 | 2825 ft | 126 kts | 25° |
| 2026-04-26 13:38 | 51.51073 | 3.55029 | 1547 ft | 165 kts | 22° |
| 2026-04-26 13:39 | 51.52146 | 3.55724 | 1250 ft | 166 kts | 22° |
| 2026-04-26 13:39 | 51.53202 | 3.56413 | 1312 ft | 160 kts | 22° |
| 2026-04-26 13:39 | 51.53870 | 3.56852 | 1425 ft | 153 kts | 22° |
| 2026-04-26 13:39 | 51.55176 | 3.57720 | 1568 ft | 154 kts | 22° |
| 2026-04-26 13:40 | 51.55840 | 3.58167 | 1545 ft | 158 kts | 23° |
| 2026-04-26 13:40 | 51.56842 | 3.58997 | 1504 ft | 165 kts | 28° |
| 2026-04-26 13:40 | 51.57832 | 3.59898 | 1439 ft | 164 kts | 30° |
| 2026-04-26 13:40 | 51.58817 | 3.60809 | 1446 ft | 158 kts | 30° |
| 2026-04-26 13:41 | 51.59768 | 3.61787 | 1406 ft | 167 kts | 33° |
| 2026-04-26 13:41 | 51.60716 | 3.62834 | 1352 ft | 167 kts | 34° |
| 2026-04-26 13:41 | 51.61671 | 3.63904 | 1319 ft | 167 kts | 34° |
| 2026-04-26 13:41 | 51.62629 | 3.64978 | 1288 ft | 167 kts | 34° |
| 2026-04-26 13:42 | 51.63584 | 3.66050 | 1257 ft | 167 kts | 34° |
| 2026-04-26 13:42 | 51.64540 | 3.67122 | 1229 ft | 167 kts | 34° |
| 2026-04-26 13:42 | 51.65503 | 3.68178 | 1194 ft | 167 kts | 35° |
| 2026-04-26 13:42 | 51.66470 | 3.69225 | 1162 ft | 167 kts | 35° |
| 2026-04-26 13:43 | 51.67437 | 3.70272 | 1130 ft | 167 kts | 35° |
| 2026-04-26 13:43 | 51.68402 | 3.71317 | 1100 ft | 167 kts | 35° |
| 2026-04-26 13:43 | 51.69342 | 3.72325 | 1194 ft | 156 kts | 34° |
| 2026-04-26 13:43 | 51.70224 | 3.73233 | 1461 ft | 150 kts | 34° |
| 2026-04-26 13:44 | 51.71123 | 3.74197 | 1542 ft | 160 kts | 36° |
| 2026-04-26 13:44 | 51.72027 | 3.75323 | 1453 ft | 164 kts | 39° |
| 2026-04-26 13:44 | 51.72884 | 3.76415 | 1596 ft | 154 kts | 40° |
| 2026-04-26 13:44 | 51.73704 | 3.77503 | 1556 ft | 158 kts | 40° |
| 2026-04-26 13:45 | 51.74583 | 3.78677 | 1422 ft | 165 kts | 40° |
| 2026-04-26 13:45 | 51.75455 | 3.79843 | 1543 ft | 162 kts | 41° |
| 2026-04-26 13:45 | 51.76349 | 3.81022 | 1501 ft | 167 kts | 40° |
| 2026-04-26 13:45 | 51.77252 | 3.82209 | 1456 ft | 167 kts | 40° |
| 2026-04-26 13:46 | 51.78120 | 3.83351 | 1398 ft | 167 kts | 40° |
| 2026-04-26 13:46 | 51.79013 | 3.84522 | 1359 ft | 167 kts | 40° |
| 2026-04-26 13:46 | 51.79918 | 3.85709 | 1321 ft | 167 kts | 40° |
| 2026-04-26 13:46 | 51.80807 | 3.86871 | 1326 ft | 163 kts | 40° |
| 2026-04-26 13:47 | 51.81676 | 3.88006 | 1415 ft | 158 kts | 40° |
| 2026-04-26 13:47 | 51.82538 | 3.89098 | 1413 ft | 157 kts | 38° |
| 2026-04-26 13:47 | 51.83438 | 3.90227 | 1348 ft | 167 kts | 39° |
| 2026-04-26 13:47 | 51.84360 | 3.91380 | 1268 ft | 167 kts | 39° |
| 2026-04-26 13:48 | 51.85282 | 3.92533 | 1191 ft | 167 kts | 39° |
| 2026-04-26 13:48 | 51.86193 | 3.93670 | 1116 ft | 167 kts | 39° |
| 2026-04-26 13:48 | 51.87115 | 3.94820 | 1105 ft | 166 kts | 39° |
| 2026-04-26 13:48 | 51.88031 | 3.95950 | 934 ft | 166 kts | 38° |
| 2026-04-26 13:49 | 51.88906 | 3.96980 | 979 ft | 144 kts | 37° |
| 2026-04-26 13:49 | 51.89676 | 3.97834 | 1255 ft | 123 kts | 36° |
| 2026-04-26 13:49 | 51.90352 | 3.98575 | 1512 ft | 119 kts | 36° |
| 2026-04-26 13:49 | 51.91068 | 3.99372 | 1563 ft | 131 kts | 36° |
| 2026-04-26 13:50 | 51.91849 | 4.00245 | 1506 ft | 140 kts | 36° |
| 2026-04-26 13:50 | 51.92665 | 4.01109 | 1558 ft | 141 kts | 34° |
| 2026-04-26 13:50 | 51.93510 | 4.01983 | 1473 ft | 147 kts | 34° |
| 2026-04-26 13:50 | 51.94347 | 4.02820 | 1621 ft | 135 kts | 33° |
| 2026-04-26 13:51 | 51.95166 | 4.03616 | 1603 ft | 143 kts | 32° |
| 2026-04-26 13:51 | 51.96004 | 4.04372 | 1561 ft | 127 kts | 30° |
| 2026-04-26 13:51 | 51.96740 | 4.04964 | 1549 ft | 109 kts | 28° |
| 2026-04-26 13:51 | 51.97386 | 4.05471 | 1544 ft | 100 kts | 26° |
| 2026-04-26 13:52 | 51.97878 | 4.06109 | 1573 ft | 90 kts | 70° |
| 2026-04-26 13:52 | 51.97896 | 4.07097 | 1592 ft | 90 kts | 96° |
| 2026-04-26 13:52 | 51.97719 | 4.08073 | 1612 ft | 91 kts | 112° |
| 2026-04-26 13:52 | 51.97443 | 4.09117 | 1680 ft | 113 kts | 109° |
| 2026-04-26 13:53 | 51.97172 | 4.10448 | 1561 ft | 137 kts | 102° |
| 2026-04-26 13:53 | 51.96980 | 4.12036 | 1477 ft | 145 kts | 99° |
| 2026-04-26 13:53 | 51.96861 | 4.13600 | 1514 ft | 139 kts | 95° |
| 2026-04-26 13:53 | 51.96775 | 4.15145 | 1472 ft | 138 kts | 93° |
| 2026-04-26 13:54 | 51.96757 | 4.16696 | 1428 ft | 137 kts | 88° |
| 2026-04-26 13:54 | 51.96798 | 4.18223 | 1440 ft | 134 kts | 85° |
| 2026-04-26 13:54 | 51.96891 | 4.19756 | 1408 ft | 147 kts | 84° |
| 2026-04-26 13:55 | 51.97132 | 4.23124 | 1769 ft | 133 kts | 75° |
| 2026-04-26 13:55 | 51.97352 | 4.24085 | 1762 ft | 145 kts | 69° |
| 2026-04-26 13:55 | 51.97795 | 4.28187 | 1507 ft | 164 kts | 95° |
| 2026-04-26 13:56 | 51.97638 | 4.29980 | 1579 ft | 156 kts | 98° |
| 2026-04-26 13:56 | 51.97478 | 4.31713 | 1560 ft | 158 kts | 97° |
| 2026-04-26 13:56 | 51.97348 | 4.33498 | 1629 ft | 159 kts | 96° |
| 2026-04-26 13:56 | 51.97242 | 4.35299 | 1577 ft | 162 kts | 94° |
| 2026-04-26 13:57 | 51.96833 | 4.36891 | 1620 ft | 160 kts | 139° |
| 2026-04-26 13:57 | 51.95866 | 4.37769 | 1437 ft | 156 kts | 149° |
| 2026-04-26 13:57 | 51.94989 | 4.38673 | 1327 ft | 148 kts | 144° |
| 2026-04-26 13:57 | 51.94276 | 4.39763 | 1167 ft | 132 kts | 111° |
| 2026-04-26 13:58 | 51.94431 | 4.41096 | 764 ft | 128 kts | 55° |
| 2026-04-26 13:58 | 51.94938 | 4.42220 | 447 ft | 120 kts | 54° |
| 2026-04-26 13:58 | 51.95302 | 4.43051 | 325 ft | 54 kts | 56° |
| 2026-04-26 13:58 | 51.95427 | 4.43364 | 73 ft | 25 kts | 57° |
| 2026-04-26 13:59 | 51.95485 | 4.43509 | 11 ft | 8 kts | 121° |
| 2026-04-26 13:59 | 51.95490 | 4.43543 | 8 ft | 5 kts | 166° |
| 2026-04-26 13:59 | 51.95433 | 4.43540 | 15 ft | 9 kts | 211° |
| 2026-04-26 14:00 | 51.95351 | 4.43449 | 16 ft | 5 kts | 215° |
| 2026-04-26 14:00 | 51.95312 | 4.43421 | 10 ft | 8 kts | 209° |
| 2026-04-26 14:00 | 51.95272 | 4.43406 | 6 ft | 9 kts | 165° |
| 2026-04-26 14:01 | 51.95207 | 4.43307 | 7 ft | 11 kts | 244° |
| 2026-04-26 14:01 | 51.95170 | 4.43199 | 8 ft | 11 kts | 245° |
| 2026-04-26 14:01 | 51.95126 | 4.43080 | 21 ft | 13 kts | 244° |
| 2026-04-26 14:01 | 51.95071 | 4.42938 | 29 ft | 17 kts | 245° |
| 2026-04-26 14:02 | 51.95002 | 4.42771 | 14 ft | 15 kts | 245° |
| 2026-04-26 14:02 | 51.94984 | 4.42697 | 7 ft | 5 kts | 246° |
| 2026-04-26 14:02 | 51.94965 | 4.42646 | 5 ft | 2 kts | 165° |
| 2026-04-26 14:02 | 51.94950 | 4.42653 | 2 ft | 1 kts | 144° |
| 2026-04-26 14:03 | 51.94948 | 4.42656 | -1 ft | 0 kts | 144° |
| 2026-04-26 14:03 | 51.94945 | 4.42643 | -1 ft | 2 kts | 146° |
| 2026-04-26 14:03 | 51.94940 | 4.42640 | -4 ft | 0 kts | 146° |